sensor_id;sensor_type;location;lat;lon;timestamp;temperature;humidity
63219;DHT22;49320;52.512;13.448;2022-09-03T00:00:36;18.40;48.70
63219;DHT22;49320;52.512;13.448;2022-09-03T00:05:47;18.40;48.80
63219;DHT22;49320;52.512;13.448;2022-09-03T00:08:35;18.40;48.90
63219;DHT22;49320;52.512;13.448;2022-09-03T00:11:16;18.30;49.00
63219;DHT22;49320;52.512;13.448;2022-09-03T00:14:06;18.30;49.10
63219;DHT22;49320;52.512;13.448;2022-09-03T00:16:51;18.30;49.20
63219;DHT22;49320;52.512;13.448;2022-09-03T00:19:23;18.30;49.20
63219;DHT22;49320;52.512;13.448;2022-09-03T00:22:14;18.30;49.30
63219;DHT22;49320;52.512;13.448;2022-09-03T00:24:47;18.20;49.20
63219;DHT22;49320;52.512;13.448;2022-09-03T00:27:19;18.20;49.10
63219;DHT22;49320;52.512;13.448;2022-09-03T00:29:58;18.20;49.30
63219;DHT22;49320;52.512;13.448;2022-09-03T00:32:53;18.10;49.50
63219;DHT22;49320;52.512;13.448;2022-09-03T00:35:28;18.10;49.40
63219;DHT22;49320;52.512;13.448;2022-09-03T00:37:59;18.10;49.40
63219;DHT22;49320;52.512;13.448;2022-09-03T00:40:44;18.00;49.50
63219;DHT22;49320;52.512;13.448;2022-09-03T00:43:29;18.00;49.70
63219;DHT22;49320;52.512;13.448;2022-09-03T00:46:33;18.00;49.60
63219;DHT22;49320;52.512;13.448;2022-09-03T00:49:31;18.00;49.70
63219;DHT22;49320;52.512;13.448;2022-09-03T00:52:47;18.00;49.80
63219;DHT22;49320;52.512;13.448;2022-09-03T00:58:33;17.90;49.80
63219;DHT22;49320;52.512;13.448;2022-09-03T01:01:29;17.90;49.90
63219;DHT22;49320;52.512;13.448;2022-09-03T01:07:18;17.80;50.10
63219;DHT22;49320;52.512;13.448;2022-09-03T01:10:21;17.80;49.90
63219;DHT22;49320;52.512;13.448;2022-09-03T01:13:13;17.80;50.10
63219;DHT22;49320;52.512;13.448;2022-09-03T01:16:19;17.80;50.20
63219;DHT22;49320;52.512;13.448;2022-09-03T01:22:33;17.70;50.40
63219;DHT22;49320;52.512;13.448;2022-09-03T01:25:36;17.70;50.30
63219;DHT22;49320;52.512;13.448;2022-09-03T01:28:43;17.70;50.90
63219;DHT22;49320;52.512;13.448;2022-09-03T01:34:53;17.60;50.50
63219;DHT22;49320;52.512;13.448;2022-09-03T01:47:45;17.50;50.50
63219;DHT22;49320;52.512;13.448;2022-09-03T01:53:22;17.40;50.60
63219;DHT22;49320;52.512;13.448;2022-09-03T01:56:13;17.40;50.70
63219;DHT22;49320;52.512;13.448;2022-09-03T01:59:12;17.40;50.50
63219;DHT22;49320;52.512;13.448;2022-09-03T02:01:58;17.30;50.80
63219;DHT22;49320;52.512;13.448;2022-09-03T02:04:32;17.30;50.80
63219;DHT22;49320;52.512;13.448;2022-09-03T02:07:00;17.30;50.80
63219;DHT22;49320;52.512;13.448;2022-09-03T02:09:27;17.20;50.80
63219;DHT22;49320;52.512;13.448;2022-09-03T02:12:07;17.30;51.00
63219;DHT22;49320;52.512;13.448;2022-09-03T02:14:41;17.30;51.10
63219;DHT22;49320;52.512;13.448;2022-09-03T02:17:09;17.20;50.90
63219;DHT22;49320;52.512;13.448;2022-09-03T02:19:37;17.20;51.10
63219;DHT22;49320;52.512;13.448;2022-09-03T02:22:05;17.20;51.00
63219;DHT22;49320;52.512;13.448;2022-09-03T02:24:32;17.20;51.10
63219;DHT22;49320;52.512;13.448;2022-09-03T02:26:58;17.20;51.10
63219;DHT22;49320;52.512;13.448;2022-09-03T02:29:26;17.10;51.20
63219;DHT22;49320;52.512;13.448;2022-09-03T02:31:53;17.10;51.10
63219;DHT22;49320;52.512;13.448;2022-09-03T02:34:20;17.10;51.20
63219;DHT22;49320;52.512;13.448;2022-09-03T02:36:47;17.10;51.30
63219;DHT22;49320;52.512;13.448;2022-09-03T02:39:15;17.10;51.40
63219;DHT22;49320;52.512;13.448;2022-09-03T02:41:42;17.10;51.40
63219;DHT22;49320;52.512;13.448;2022-09-03T02:44:19;17.00;51.40
63219;DHT22;49320;52.512;13.448;2022-09-03T02:46:57;17.00;51.60
63219;DHT22;49320;52.512;13.448;2022-09-03T02:49:28;17.10;51.60
63219;DHT22;49320;52.512;13.448;2022-09-03T02:51:58;17.00;51.50
63219;DHT22;49320;52.512;13.448;2022-09-03T02:54:27;16.70;51.40
63219;DHT22;49320;52.512;13.448;2022-09-03T02:56:54;16.90;51.40
63219;DHT22;49320;52.512;13.448;2022-09-03T02:59:21;16.90;51.50
63219;DHT22;49320;52.512;13.448;2022-09-03T03:01:48;16.90;51.60
63219;DHT22;49320;52.512;13.448;2022-09-03T03:04:15;16.80;51.60
63219;DHT22;49320;52.512;13.448;2022-09-03T03:06:42;16.80;51.60
63219;DHT22;49320;52.512;13.448;2022-09-03T03:09:13;16.80;51.70
63219;DHT22;49320;52.512;13.448;2022-09-03T03:11:39;16.80;51.70
63219;DHT22;49320;52.512;13.448;2022-09-03T03:14:06;16.70;51.80
63219;DHT22;49320;52.512;13.448;2022-09-03T03:16:33;16.80;51.80
63219;DHT22;49320;52.512;13.448;2022-09-03T03:19:00;16.70;51.90
63219;DHT22;49320;52.512;13.448;2022-09-03T03:21:27;16.70;51.90
63219;DHT22;49320;52.512;13.448;2022-09-03T03:23:54;16.70;51.90
63219;DHT22;49320;52.512;13.448;2022-09-03T03:26:21;16.70;51.90
63219;DHT22;49320;52.512;13.448;2022-09-03T03:28:56;16.60;51.90
63219;DHT22;49320;52.512;13.448;2022-09-03T03:31:26;16.60;52.00
63219;DHT22;49320;52.512;13.448;2022-09-03T03:33:54;16.60;52.00
63219;DHT22;49320;52.512;13.448;2022-09-03T03:36:28;16.60;51.60
63219;DHT22;49320;52.512;13.448;2022-09-03T03:38:58;16.50;52.10
63219;DHT22;49320;52.512;13.448;2022-09-03T03:41:31;16.60;52.20
63219;DHT22;49320;52.512;13.448;2022-09-03T03:44:05;16.50;52.20
63219;DHT22;49320;52.512;13.448;2022-09-03T03:46:37;16.50;52.20
63219;DHT22;49320;52.512;13.448;2022-09-03T03:49:07;16.60;52.30
63219;DHT22;49320;52.512;13.448;2022-09-03T03:51:35;16.50;52.20
63219;DHT22;49320;52.512;13.448;2022-09-03T03:54:03;16.50;52.30
63219;DHT22;49320;52.512;13.448;2022-09-03T03:56:31;16.50;52.40
63219;DHT22;49320;52.512;13.448;2022-09-03T03:58:59;16.50;52.40
63219;DHT22;49320;52.512;13.448;2022-09-03T04:01:27;16.50;52.50
63219;DHT22;49320;52.512;13.448;2022-09-03T04:03:55;16.50;52.50
63219;DHT22;49320;52.512;13.448;2022-09-03T04:06:23;16.50;52.60
63219;DHT22;49320;52.512;13.448;2022-09-03T04:08:50;16.50;52.50
63219;DHT22;49320;52.512;13.448;2022-09-03T04:11:20;16.60;52.60
63219;DHT22;49320;52.512;13.448;2022-09-03T04:13:49;16.50;52.50
63219;DHT22;49320;52.512;13.448;2022-09-03T04:16:18;16.60;52.60
63219;DHT22;49320;52.512;13.448;2022-09-03T04:18:48;16.60;52.60
63219;DHT22;49320;52.512;13.448;2022-09-03T04:21:23;16.60;52.60
63219;DHT22;49320;52.512;13.448;2022-09-03T04:23:54;16.60;52.70
63219;DHT22;49320;52.512;13.448;2022-09-03T04:26:27;16.60;52.70
63219;DHT22;49320;52.512;13.448;2022-09-03T04:28:59;16.60;52.70
63219;DHT22;49320;52.512;13.448;2022-09-03T04:31:29;16.60;52.70
63219;DHT22;49320;52.512;13.448;2022-09-03T04:33:57;16.50;52.70
63219;DHT22;49320;52.512;13.448;2022-09-03T04:36:26;16.50;52.80
63219;DHT22;49320;52.512;13.448;2022-09-03T04:38:57;16.50;53.40
63219;DHT22;49320;52.512;13.448;2022-09-03T04:41:27;16.50;52.90
63219;DHT22;49320;52.512;13.448;2022-09-03T04:43:57;16.50;53.00
63219;DHT22;49320;52.512;13.448;2022-09-03T04:46:26;16.50;53.00
63219;DHT22;49320;52.512;13.448;2022-09-03T04:48:59;16.40;53.20
63219;DHT22;49320;52.512;13.448;2022-09-03T04:51:28;16.40;53.10
63219;DHT22;49320;52.512;13.448;2022-09-03T04:54:00;16.40;53.10
63219;DHT22;49320;52.512;13.448;2022-09-03T04:56:32;16.40;53.30
63219;DHT22;49320;52.512;13.448;2022-09-03T04:59:06;16.40;53.30
63219;DHT22;49320;52.512;13.448;2022-09-03T05:01:36;16.40;53.40
63219;DHT22;49320;52.512;13.448;2022-09-03T05:04:05;16.40;53.40
63219;DHT22;49320;52.512;13.448;2022-09-03T05:06:34;16.40;53.60
63219;DHT22;49320;52.512;13.448;2022-09-03T05:09:02;16.40;53.60
63219;DHT22;49320;52.512;13.448;2022-09-03T05:11:30;16.50;53.80
63219;DHT22;49320;52.512;13.448;2022-09-03T05:13:58;16.40;53.70
63219;DHT22;49320;52.512;13.448;2022-09-03T05:16:26;16.50;53.80
63219;DHT22;49320;52.512;13.448;2022-09-03T05:18:57;16.40;53.90
63219;DHT22;49320;52.512;13.448;2022-09-03T05:21:25;16.50;54.50
63219;DHT22;49320;52.512;13.448;2022-09-03T05:23:54;16.50;54.00
63219;DHT22;49320;52.512;13.448;2022-09-03T05:26:23;16.50;54.00
63219;DHT22;49320;52.512;13.448;2022-09-03T05:28:54;16.40;54.20
63219;DHT22;49320;52.512;13.448;2022-09-03T05:31:24;16.40;54.30
63219;DHT22;49320;52.512;13.448;2022-09-03T05:33:55;16.40;54.40
63219;DHT22;49320;52.512;13.448;2022-09-03T05:36:28;16.40;54.50
63219;DHT22;49320;52.512;13.448;2022-09-03T05:38:58;16.40;54.50
63219;DHT22;49320;52.512;13.448;2022-09-03T05:41:26;16.40;54.80
63219;DHT22;49320;52.512;13.448;2022-09-03T05:43:55;16.50;54.70
63219;DHT22;49320;52.512;13.448;2022-09-03T05:46:29;16.50;54.70
63219;DHT22;49320;52.512;13.448;2022-09-03T05:48:59;16.60;54.80
63219;DHT22;49320;52.512;13.448;2022-09-03T05:51:28;16.60;54.70
63219;DHT22;49320;52.512;13.448;2022-09-03T05:53:56;16.60;54.90
63219;DHT22;49320;52.512;13.448;2022-09-03T05:56:25;16.60;54.70
63219;DHT22;49320;52.512;13.448;2022-09-03T05:58:57;16.70;54.80
63219;DHT22;49320;52.512;13.448;2022-09-03T06:01:32;16.70;54.80
63219;DHT22;49320;52.512;13.448;2022-09-03T06:04:19;16.70;55.10
63219;DHT22;49320;52.512;13.448;2022-09-03T06:06:47;16.60;54.80
63219;DHT22;49320;52.512;13.448;2022-09-03T06:09:17;16.50;54.80
63219;DHT22;49320;52.512;13.448;2022-09-03T06:11:45;16.70;55.10
63219;DHT22;49320;52.512;13.448;2022-09-03T06:14:16;16.70;55.10
63219;DHT22;49320;52.512;13.448;2022-09-03T06:16:45;16.80;55.10
63219;DHT22;49320;52.512;13.448;2022-09-03T06:19:16;16.80;55.10
63219;DHT22;49320;52.512;13.448;2022-09-03T06:21:44;16.90;55.10
63219;DHT22;49320;52.512;13.448;2022-09-03T06:24:17;16.90;55.10
63219;DHT22;49320;52.512;13.448;2022-09-03T06:26:45;17.00;55.10
63219;DHT22;49320;52.512;13.448;2022-09-03T06:29:13;17.00;55.10
63219;DHT22;49320;52.512;13.448;2022-09-03T06:31:39;17.10;55.20
63219;DHT22;49320;52.512;13.448;2022-09-03T06:34:06;17.20;55.40
63219;DHT22;49320;52.512;13.448;2022-09-03T06:36:33;17.20;55.30
63219;DHT22;49320;52.512;13.448;2022-09-03T06:39:00;17.30;55.40
63219;DHT22;49320;52.512;13.448;2022-09-03T06:41:30;17.40;55.00
63219;DHT22;49320;52.512;13.448;2022-09-03T06:44:05;17.40;55.20
63219;DHT22;49320;52.512;13.448;2022-09-03T06:46:38;17.50;55.20
63219;DHT22;49320;52.512;13.448;2022-09-03T06:49:09;17.60;55.10
63219;DHT22;49320;52.512;13.448;2022-09-03T06:51:37;17.70;55.10
63219;DHT22;49320;52.512;13.448;2022-09-03T06:54:06;17.70;54.90
63219;DHT22;49320;52.512;13.448;2022-09-03T06:56:35;17.90;54.80
63219;DHT22;49320;52.512;13.448;2022-09-03T06:59:12;18.00;54.80
63219;DHT22;49320;52.512;13.448;2022-09-03T07:01:41;18.00;54.60
63219;DHT22;49320;52.512;13.448;2022-09-03T07:04:13;18.20;54.60
63219;DHT22;49320;52.512;13.448;2022-09-03T07:06:42;18.20;54.40
63219;DHT22;49320;52.512;13.448;2022-09-03T07:09:12;18.30;54.30
63219;DHT22;49320;52.512;13.448;2022-09-03T07:11:41;18.50;54.20
63219;DHT22;49320;52.512;13.448;2022-09-03T07:14:18;18.50;54.10
63219;DHT22;49320;52.512;13.448;2022-09-03T07:16:46;18.70;54.10
63219;DHT22;49320;52.512;13.448;2022-09-03T07:19:14;18.70;53.90
63219;DHT22;49320;52.512;13.448;2022-09-03T07:21:42;18.80;53.80
63219;DHT22;49320;52.512;13.448;2022-09-03T07:24:15;18.90;53.80
63219;DHT22;49320;52.512;13.448;2022-09-03T07:26:42;19.00;53.70
63219;DHT22;49320;52.512;13.448;2022-09-03T07:29:13;19.00;53.50
63219;DHT22;49320;52.512;13.448;2022-09-03T07:31:42;19.10;53.50
63219;DHT22;49320;52.512;13.448;2022-09-03T07:34:11;19.10;53.40
63219;DHT22;49320;52.512;13.448;2022-09-03T07:36:41;19.30;53.30
63219;DHT22;49320;52.512;13.448;2022-09-03T07:39:14;19.30;53.30
63219;DHT22;49320;52.512;13.448;2022-09-03T07:41:44;19.30;53.30
63219;DHT22;49320;52.512;13.448;2022-09-03T07:44:16;19.30;53.20
63219;DHT22;49320;52.512;13.448;2022-09-03T07:46:48;19.40;53.20
63219;DHT22;49320;52.512;13.448;2022-09-03T07:49:16;19.50;53.10
63219;DHT22;49320;52.512;13.448;2022-09-03T07:51:43;19.50;53.00
63219;DHT22;49320;52.512;13.448;2022-09-03T07:54:12;19.60;53.00
63219;DHT22;49320;52.512;13.448;2022-09-03T07:56:39;19.60;52.90
63219;DHT22;49320;52.512;13.448;2022-09-03T07:59:07;19.70;52.80
63219;DHT22;49320;52.512;13.448;2022-09-03T08:01:35;19.80;52.80
63219;DHT22;49320;52.512;13.448;2022-09-03T08:04:07;19.80;52.70
63219;DHT22;49320;52.512;13.448;2022-09-03T08:06:36;19.90;52.70
63219;DHT22;49320;52.512;13.448;2022-09-03T08:09:07;20.00;52.60
63219;DHT22;49320;52.512;13.448;2022-09-03T08:11:38;20.20;52.60
63219;DHT22;49320;52.512;13.448;2022-09-03T08:14:09;20.30;52.40
63219;DHT22;49320;52.512;13.448;2022-09-03T08:16:40;20.30;52.20
63219;DHT22;49320;52.512;13.448;2022-09-03T08:19:13;20.50;52.00
63219;DHT22;49320;52.512;13.448;2022-09-03T08:21:41;20.70;51.90
63219;DHT22;49320;52.512;13.448;2022-09-03T08:24:08;20.70;51.70
63219;DHT22;49320;52.512;13.448;2022-09-03T08:26:38;20.80;51.50
63219;DHT22;49320;52.512;13.448;2022-09-03T08:29:16;20.90;51.40
63219;DHT22;49320;52.512;13.448;2022-09-03T08:31:43;21.00;51.20
63219;DHT22;49320;52.512;13.448;2022-09-03T08:34:10;21.10;51.20
63219;DHT22;49320;52.512;13.448;2022-09-03T08:36:38;21.10;51.50
63219;DHT22;49320;52.512;13.448;2022-09-03T08:39:08;21.20;50.90
63219;DHT22;49320;52.512;13.448;2022-09-03T08:41:47;21.40;50.80
63219;DHT22;49320;52.512;13.448;2022-09-03T08:44:56;21.30;50.60
63219;DHT22;49320;52.512;13.448;2022-09-03T08:47:43;21.30;50.20
63219;DHT22;49320;52.512;13.448;2022-09-03T08:50:27;21.30;50.40
63219;DHT22;49320;52.512;13.448;2022-09-03T08:53:11;21.30;50.40
63219;DHT22;49320;52.512;13.448;2022-09-03T08:58:21;21.40;50.40
63219;DHT22;49320;52.512;13.448;2022-09-03T09:07:13;21.40;50.20
63219;DHT22;49320;52.512;13.448;2022-09-03T09:10:04;21.40;50.20
63219;DHT22;49320;52.512;13.448;2022-09-03T09:13:09;21.40;50.10
63219;DHT22;49320;52.512;13.448;2022-09-03T09:18:50;21.20;49.70
63219;DHT22;49320;52.512;13.448;2022-09-03T09:21:30;21.50;49.60
63219;DHT22;49320;52.512;13.448;2022-09-03T09:24:05;21.50;49.50
63219;DHT22;49320;52.512;13.448;2022-09-03T09:27:00;21.60;49.50
63219;DHT22;49320;52.512;13.448;2022-09-03T09:29:37;21.60;49.20
63219;DHT22;49320;52.512;13.448;2022-09-03T09:32:08;21.70;49.30
63219;DHT22;49320;52.512;13.448;2022-09-03T09:34:38;21.70;49.20
63219;DHT22;49320;52.512;13.448;2022-09-03T09:37:12;21.80;49.20
63219;DHT22;49320;52.512;13.448;2022-09-03T09:39:55;21.80;49.20
63219;DHT22;49320;52.512;13.448;2022-09-03T09:42:24;21.90;49.10
63219;DHT22;49320;52.512;13.448;2022-09-03T09:44:52;21.90;49.20
63219;DHT22;49320;52.512;13.448;2022-09-03T09:47:25;22.00;49.10
63219;DHT22;49320;52.512;13.448;2022-09-03T09:49:59;22.00;48.20
63219;DHT22;49320;52.512;13.448;2022-09-03T09:52:30;22.10;48.40
63219;DHT22;49320;52.512;13.448;2022-09-03T09:55:14;22.10;47.80
63219;DHT22;49320;52.512;13.448;2022-09-03T09:57:43;22.20;47.80
63219;DHT22;49320;52.512;13.448;2022-09-03T10:00:16;22.20;47.30
63219;DHT22;49320;52.512;13.448;2022-09-03T10:02:51;22.30;47.70
63219;DHT22;49320;52.512;13.448;2022-09-03T10:05:27;22.30;47.60
63219;DHT22;49320;52.512;13.448;2022-09-03T10:10:35;22.40;47.50
63219;DHT22;49320;52.512;13.448;2022-09-03T10:13:12;22.50;47.40
63219;DHT22;49320;52.512;13.448;2022-09-03T10:19:27;22.60;46.70
63219;DHT22;49320;52.512;13.448;2022-09-03T10:22:06;22.70;46.40
63219;DHT22;49320;52.512;13.448;2022-09-03T10:24:58;22.70;46.40
63219;DHT22;49320;52.512;13.448;2022-09-03T10:27:27;22.80;46.20
63219;DHT22;49320;52.512;13.448;2022-09-03T10:29:57;22.90;46.30
63219;DHT22;49320;52.512;13.448;2022-09-03T10:35:51;23.00;45.20
63219;DHT22;49320;52.512;13.448;2022-09-03T10:38:33;23.00;45.10
63219;DHT22;49320;52.512;13.448;2022-09-03T10:41:27;23.10;45.70
63219;DHT22;49320;52.512;13.448;2022-09-03T10:47:45;23.20;45.00
63219;DHT22;49320;52.512;13.448;2022-09-03T10:51:27;23.30;44.80
63219;DHT22;49320;52.512;13.448;2022-09-03T10:59:37;23.60;45.10
63219;DHT22;49320;52.512;13.448;2022-09-03T11:08:39;23.90;44.80
63219;DHT22;49320;52.512;13.448;2022-09-03T11:11:17;24.00;43.50
63219;DHT22;49320;52.512;13.448;2022-09-03T11:13:52;24.10;43.90
63219;DHT22;49320;52.512;13.448;2022-09-03T11:16:43;24.20;44.20
63219;DHT22;49320;52.512;13.448;2022-09-03T11:19:15;24.40;43.60
63219;DHT22;49320;52.512;13.448;2022-09-03T11:21:45;24.40;43.10
63219;DHT22;49320;52.512;13.448;2022-09-03T11:24:22;24.50;43.00
63219;DHT22;49320;52.512;13.448;2022-09-03T11:27:44;24.60;42.70
63219;DHT22;49320;52.512;13.448;2022-09-03T11:30:03;24.90;42.70
63219;DHT22;49320;52.512;13.448;2022-09-03T11:35:22;24.90;42.20
63219;DHT22;49320;52.512;13.448;2022-09-03T11:38:02;24.80;41.80
63219;DHT22;49320;52.512;13.448;2022-09-03T11:40:37;24.90;41.10
63219;DHT22;49320;52.512;13.448;2022-09-03T11:45:36;25.10;42.00
63219;DHT22;49320;52.512;13.448;2022-09-03T11:48:38;25.10;40.90
63219;DHT22;49320;52.512;13.448;2022-09-03T11:54:04;25.20;40.60
63219;DHT22;49320;52.512;13.448;2022-09-03T11:56:46;25.10;40.70
63219;DHT22;49320;52.512;13.448;2022-09-03T11:59:22;25.00;41.10
63219;DHT22;49320;52.512;13.448;2022-09-03T12:02:01;25.10;40.90
63219;DHT22;49320;52.512;13.448;2022-09-03T12:04:39;25.00;40.20
63219;DHT22;49320;52.512;13.448;2022-09-03T12:13:59;25.10;40.20
63219;DHT22;49320;52.512;13.448;2022-09-03T12:17:05;25.10;40.10
63219;DHT22;49320;52.512;13.448;2022-09-03T12:19:51;25.10;40.00
63219;DHT22;49320;52.512;13.448;2022-09-03T12:22:26;25.10;40.50
63219;DHT22;49320;52.512;13.448;2022-09-03T12:24:54;25.20;40.50
63219;DHT22;49320;52.512;13.448;2022-09-03T12:27:23;25.20;40.50
63219;DHT22;49320;52.512;13.448;2022-09-03T12:29:57;25.40;40.20
63219;DHT22;49320;52.512;13.448;2022-09-03T12:32:28;25.40;39.50
63219;DHT22;49320;52.512;13.448;2022-09-03T12:35:08;25.50;39.90
63219;DHT22;49320;52.512;13.448;2022-09-03T12:37:37;25.60;39.30
63219;DHT22;49320;52.512;13.448;2022-09-03T12:40:27;25.60;38.70
63219;DHT22;49320;52.512;13.448;2022-09-03T12:43:14;25.60;39.00
63219;DHT22;49320;52.512;13.448;2022-09-03T12:46:03;25.70;38.20
63219;DHT22;49320;52.512;13.448;2022-09-03T12:48:38;25.70;39.00
63219;DHT22;49320;52.512;13.448;2022-09-03T12:51:40;25.70;39.20
63219;DHT22;49320;52.512;13.448;2022-09-03T12:54:21;25.90;39.00
63219;DHT22;49320;52.512;13.448;2022-09-03T12:56:55;25.90;38.00
63219;DHT22;49320;52.512;13.448;2022-09-03T12:59:27;26.00;38.70
63219;DHT22;49320;52.512;13.448;2022-09-03T13:02:05;26.00;38.90
63219;DHT22;49320;52.512;13.448;2022-09-03T13:04:45;26.10;38.50
63219;DHT22;49320;52.512;13.448;2022-09-03T13:09:59;26.10;37.90
63219;DHT22;49320;52.512;13.448;2022-09-03T13:12:33;27.00;38.80
63219;DHT22;49320;52.512;13.448;2022-09-03T13:15:15;26.00;38.10
63219;DHT22;49320;52.512;13.448;2022-09-03T13:17:56;26.00;38.20
63219;DHT22;49320;52.512;13.448;2022-09-03T13:20:41;25.90;38.20
63219;DHT22;49320;52.512;13.448;2022-09-03T13:23:30;25.90;37.70
63219;DHT22;49320;52.512;13.448;2022-09-03T13:26:18;25.90;38.10
63219;DHT22;49320;52.512;13.448;2022-09-03T13:29:13;25.90;38.00
63219;DHT22;49320;52.512;13.448;2022-09-03T13:35:11;25.80;37.40
63219;DHT22;49320;52.512;13.448;2022-09-03T13:37:44;25.90;37.80
63219;DHT22;49320;52.512;13.448;2022-09-03T13:43:04;25.90;37.70
63219;DHT22;49320;52.512;13.448;2022-09-03T13:46:06;26.00;37.50
63219;DHT22;49320;52.512;13.448;2022-09-03T13:48:40;26.10;36.20
63219;DHT22;49320;52.512;13.448;2022-09-03T13:51:52;26.10;37.40
63219;DHT22;49320;52.512;13.448;2022-09-03T13:54:30;26.10;37.00
63219;DHT22;49320;52.512;13.448;2022-09-03T13:57:33;26.10;37.50
63219;DHT22;49320;52.512;13.448;2022-09-03T14:00:08;26.10;36.90
63219;DHT22;49320;52.512;13.448;2022-09-03T14:11:56;26.30;37.50
63219;DHT22;49320;52.512;13.448;2022-09-03T14:14:50;26.30;36.50
63219;DHT22;49320;52.512;13.448;2022-09-03T14:20:18;26.40;37.20
63219;DHT22;49320;52.512;13.448;2022-09-03T14:25:54;26.40;35.90
63219;DHT22;49320;52.512;13.448;2022-09-03T14:28:29;26.50;36.70
63219;DHT22;49320;52.512;13.448;2022-09-03T14:31:12;26.50;36.80
63219;DHT22;49320;52.512;13.448;2022-09-03T14:34:16;26.50;36.20
63219;DHT22;49320;52.512;13.448;2022-09-03T14:36:57;26.40;36.40
63219;DHT22;49320;52.512;13.448;2022-09-03T14:39:54;26.40;36.80
63219;DHT22;49320;52.512;13.448;2022-09-03T14:42:36;26.40;37.20
63219;DHT22;49320;52.512;13.448;2022-09-03T14:49:05;26.40;36.40
63219;DHT22;49320;52.512;13.448;2022-09-03T14:58:17;26.60;36.10
63219;DHT22;49320;52.512;13.448;2022-09-03T15:00:59;26.60;35.80
63219;DHT22;49320;52.512;13.448;2022-09-03T15:09:53;26.30;36.50
63219;DHT22;49320;52.512;13.448;2022-09-03T15:12:36;26.20;36.30
63219;DHT22;49320;52.512;13.448;2022-09-03T15:15:12;26.10;36.20
63219;DHT22;49320;52.512;13.448;2022-09-03T15:18:24;26.10;36.50
63219;DHT22;49320;52.512;13.448;2022-09-03T15:21:52;25.90;36.20
63219;DHT22;49320;52.512;13.448;2022-09-03T15:24:47;25.90;36.40
63219;DHT22;49320;52.512;13.448;2022-09-03T15:30:41;25.90;37.10
63219;DHT22;49320;52.512;13.448;2022-09-03T15:33:33;25.90;36.80
63219;DHT22;49320;52.512;13.448;2022-09-03T15:36:19;25.90;36.50
63219;DHT22;49320;52.512;13.448;2022-09-03T15:39:18;25.90;36.30
63219;DHT22;49320;52.512;13.448;2022-09-03T15:42:08;25.90;36.20
63219;DHT22;49320;52.512;13.448;2022-09-03T15:44:50;25.80;36.40
63219;DHT22;49320;52.512;13.448;2022-09-03T15:47:39;25.80;36.90
63219;DHT22;49320;52.512;13.448;2022-09-03T15:50:34;25.80;36.00
63219;DHT22;49320;52.512;13.448;2022-09-03T15:53:33;25.70;36.20
63219;DHT22;49320;52.512;13.448;2022-09-03T15:56:27;25.70;36.60
63219;DHT22;49320;52.512;13.448;2022-09-03T15:59:15;25.70;36.50
63219;DHT22;49320;52.512;13.448;2022-09-03T16:02:04;25.70;36.00
63219;DHT22;49320;52.512;13.448;2022-09-03T16:08:01;25.70;36.20
63219;DHT22;49320;52.512;13.448;2022-09-03T16:10:47;25.70;36.50
63219;DHT22;49320;52.512;13.448;2022-09-03T16:13:49;25.70;36.80
63219;DHT22;49320;52.512;13.448;2022-09-03T16:17:02;25.70;36.50
63219;DHT22;49320;52.512;13.448;2022-09-03T16:19:45;25.70;36.50
63219;DHT22;49320;52.512;13.448;2022-09-03T16:22:28;25.70;36.70
63219;DHT22;49320;52.512;13.448;2022-09-03T16:25:17;25.60;36.60
63219;DHT22;49320;52.512;13.448;2022-09-03T16:46:24;25.20;37.10
63219;DHT22;49320;52.512;13.448;2022-09-03T16:49:04;25.10;37.00
63219;DHT22;49320;52.512;13.448;2022-09-03T16:51:49;25.10;37.10
63219;DHT22;49320;52.512;13.448;2022-09-03T17:00:20;24.90;37.20
63219;DHT22;49320;52.512;13.448;2022-09-03T17:08:41;24.70;37.50
63219;DHT22;49320;52.512;13.448;2022-09-03T17:14:43;24.70;37.70
63219;DHT22;49320;52.512;13.448;2022-09-03T17:17:44;24.70;37.70
63219;DHT22;49320;52.512;13.448;2022-09-03T17:23:44;24.50;37.80
63219;DHT22;49320;52.512;13.448;2022-09-03T17:29:44;24.50;38.10
63219;DHT22;49320;52.512;13.448;2022-09-03T17:39:14;24.40;38.20
63219;DHT22;49320;52.512;13.448;2022-09-03T17:44:41;24.30;38.40
63219;DHT22;49320;52.512;13.448;2022-09-03T17:47:41;24.30;38.40
63219;DHT22;49320;52.512;13.448;2022-09-03T17:50:33;24.20;38.40
63219;DHT22;49320;52.512;13.448;2022-09-03T17:53:21;24.10;38.50
63219;DHT22;49320;52.512;13.448;2022-09-03T17:58:53;24.00;38.50
63219;DHT22;49320;52.512;13.448;2022-09-03T18:01:34;23.90;38.70
63219;DHT22;49320;52.512;13.448;2022-09-03T18:04:33;23.90;38.80
63219;DHT22;49320;52.512;13.448;2022-09-03T18:07:31;23.80;38.80
63219;DHT22;49320;52.512;13.448;2022-09-03T18:10:15;23.80;38.90
63219;DHT22;49320;52.512;13.448;2022-09-03T18:12:48;23.70;39.00
63219;DHT22;49320;52.512;13.448;2022-09-03T18:15:48;23.60;39.00
63219;DHT22;49320;52.512;13.448;2022-09-03T18:18:28;23.60;39.10
63219;DHT22;49320;52.512;13.448;2022-09-03T18:20:58;23.60;39.20
63219;DHT22;49320;52.512;13.448;2022-09-03T18:24:27;23.50;39.30
63219;DHT22;49320;52.512;13.448;2022-09-03T18:27:26;23.40;39.30
63219;DHT22;49320;52.512;13.448;2022-09-03T18:30:17;23.40;39.40
63219;DHT22;49320;52.512;13.448;2022-09-03T18:33:03;23.40;39.40
63219;DHT22;49320;52.512;13.448;2022-09-03T18:35:49;23.30;39.50
63219;DHT22;49320;52.512;13.448;2022-09-03T18:38:36;23.30;39.50
63219;DHT22;49320;52.512;13.448;2022-09-03T18:54:24;23.20;39.80
63219;DHT22;49320;52.512;13.448;2022-09-03T18:57:51;23.10;39.90
63219;DHT22;49320;52.512;13.448;2022-09-03T19:04:14;23.10;40.00
63219;DHT22;49320;52.512;13.448;2022-09-03T19:07:25;23.10;39.90
63219;DHT22;49320;52.512;13.448;2022-09-03T19:10:33;23.00;40.00
63219;DHT22;49320;52.512;13.448;2022-09-03T19:13:30;23.00;40.10
63219;DHT22;49320;52.512;13.448;2022-09-03T19:16:52;22.90;40.10
63219;DHT22;49320;52.512;13.448;2022-09-03T19:20:25;23.00;40.20
63219;DHT22;49320;52.512;13.448;2022-09-03T19:23:14;22.90;40.20
63219;DHT22;49320;52.512;13.448;2022-09-03T19:26:18;22.90;40.30
63219;DHT22;49320;52.512;13.448;2022-09-03T19:29:22;22.90;40.40
63219;DHT22;49320;52.512;13.448;2022-09-03T19:32:30;22.90;40.40
63219;DHT22;49320;52.512;13.448;2022-09-03T19:35:41;22.90;40.40
63219;DHT22;49320;52.512;13.448;2022-09-03T19:39:12;22.80;40.40
63219;DHT22;49320;52.512;13.448;2022-09-03T19:45:45;22.80;40.50
63219;DHT22;49320;52.512;13.448;2022-09-03T19:49:07;22.80;40.60